Time;durP1;ratioP1;P1;durP2;ratioP2;P2;SDS_P1;SDS_P2;PMS_P1;PMS_P2;Temp;Humidity;BMP_temperature;BMP_pressure;BME280_temperature;BME280_humidity;BME280_pressure;Samples;Min_cycle;Max_cycle;Signal;HPM_P1;HPM_P2
2022/01/05 00:01:18;;;;;;;77.68;37.10;;;;;;;13.19;100.00;98886.25;4837370;29;20153;-69
2022/01/05 00:04:07;;;;;;;66.45;37.88;;;;;;;13.19;100.00;98882.81;4835745;29;20061;-71
2022/01/05 00:06:49;;;;;;;63.38;38.45;;;;;;;13.17;100.00;98888.06;4836089;29;20121;-70
2022/01/05 00:09:36;;;;;;;71.65;38.58;;;;;;;13.26;100.00;98886.88;4823822;29;20379;-69
2022/01/05 00:12:18;;;;;;;65.72;37.35;;;;;;;13.23;100.00;98879.25;4835253;29;20046;-69
2022/01/05 00:15:15;;;;;;;73.72;40.25;;;;;;;13.16;100.00;98883.81;4834121;29;20058;-70
2022/01/05 00:17:50;;;;;;;86.90;40.58;;;;;;;13.13;100.00;98870.97;4843239;29;20057;-70
2022/01/05 00:20:38;;;;;;;73.30;40.55;;;;;;;13.04;100.00;98863.53;4853778;29;20447;-69
2022/01/05 00:23:20;;;;;;;77.50;43.20;;;;;;;12.98;100.00;98859.44;4850333;29;20499;-70
2022/01/05 00:26:08;;;;;;;80.53;41.13;;;;;;;13.08;100.00;98851.34;4826446;29;20062;-69
2022/01/05 00:28:57;;;;;;;85.22;42.70;;;;;;;13.02;100.00;98839.44;4803961;29;20092;-70
2022/01/05 00:31:45;;;;;;;80.07;42.20;;;;;;;13.01;100.00;98824.81;4817200;29;20058;-69
2022/01/05 00:34:28;;;;;;;78.57;43.22;;;;;;;13.03;100.00;98830.78;4821084;29;22031;-70
2022/01/05 00:37:16;;;;;;;79.85;44.97;;;;;;;13.01;100.00;98837.75;4823167;29;20055;-70
2022/01/05 00:40:06;;;;;;;78.18;44.42;;;;;;;13.06;100.00;98843.63;4822658;29;20054;-71
2022/01/05 00:42:48;;;;;;;82.80;42.97;;;;;;;13.11;100.00;98859.81;4828740;29;20054;-71
2022/01/05 00:45:39;;;;;;;76.00;42.67;;;;;;;13.16;100.00;98863.13;4852779;29;20048;-70
2022/01/05 00:48:29;;;;;;;73.00;41.70;;;;;;;13.15;100.00;98860.56;4844167;29;20057;-68
2022/01/05 00:51:19;;;;;;;68.82;40.97;;;;;;;13.21;100.00;98863.78;4856375;29;20049;-70
2022/01/05 00:54:00;;;;;;;70.38;41.90;;;;;;;13.34;100.00;98871.91;4823515;29;20064;-70
2022/01/05 00:56:51;;;;;;;74.95;40.58;;;;;;;13.46;100.00;98886.13;4843474;29;20049;-71
2022/01/05 00:59:39;;;;;;;73.57;39.92;;;;;;;13.37;100.00;98883.00;4840923;29;20054;-70
2022/01/05 01:02:28;;;;;;;65.70;38.55;;;;;;;13.34;100.00;98877.91;4831200;29;20925;-70
2022/01/05 01:05:19;;;;;;;69.00;40.33;;;;;;;13.49;100.00;98875.66;4834208;29;20062;-69
2022/01/05 01:08:01;;;;;;;70.60;39.90;;;;;;;13.41;100.00;98878.53;4842048;29;20061;-70
2022/01/05 01:10:50;;;;;;;59.75;37.95;;;;;;;13.21;100.00;98886.22;4841766;29;20072;-70
2022/01/05 01:13:32;;;;;;;71.22;40.28;;;;;;;13.18;100.00;98894.91;4840328;29;20061;-70
2022/01/05 01:16:20;;;;;;;70.40;38.20;;;;;;;13.23;100.00;98897.34;4832508;29;20525;-69
2022/01/05 01:19:09;;;;;;;70.65;38.78;;;;;;;13.21;100.00;98892.22;4842350;29;20435;-71
2022/01/05 01:22:04;;;;;;;67.18;38.15;;;;;;;13.30;100.00;98884.13;4842466;29;20149;-70
2022/01/05 01:24:52;;;;;;;66.82;39.10;;;;;;;13.35;100.00;98865.81;4841229;29;20057;-72
2022/01/05 01:27:42;;;;;;;66.20;39.08;;;;;;;13.29;100.00;98853.13;4841151;29;20060;-70
2022/01/05 01:30:25;;;;;;;61.67;38.47;;;;;;;13.23;100.00;98864.56;4842273;29;20046;-70
2022/01/05 01:33:14;;;;;;;66.75;38.33;;;;;;;13.22;100.00;98875.81;4832104;29;20068;-68
2022/01/05 01:36:03;;;;;;;68.43;41.15;;;;;;;13.34;100.00;98874.47;4842576;29;20121;-69
2022/01/05 01:38:45;;;;;;;66.53;40.40;;;;;;;13.33;100.00;98876.22;4849530;29;20829;-70
2022/01/05 01:41:32;;;;;;;64.40;38.75;;;;;;;13.33;100.00;98865.88;4849585;29;20466;-70
2022/01/05 01:44:22;;;;;;;61.90;37.20;;;;;;;13.30;100.00;98866.00;4855162;29;20132;-71
2022/01/05 01:47:04;;;;;;;65.93;40.05;;;;;;;13.36;100.00;98854.56;4843337;29;20049;-71
2022/01/05 01:49:52;;;;;;;67.78;39.85;;;;;;;13.63;100.00;98857.84;4845560;29;20744;-71
2022/01/05 01:52:34;;;;;;;60.10;38.60;;;;;;;13.60;100.00;98845.00;4828902;29;20076;-69
2022/01/05 01:55:23;;;;;;;66.90;38.30;;;;;;;13.46;100.00;98855.06;4839966;29;20102;-70
2022/01/05 01:58:06;;;;;;;66.80;38.28;;;;;;;13.47;100.00;98861.94;4843263;29;20655;-69
2022/01/05 02:00:55;;;;;;;57.00;35.75;;;;;;;13.36;100.00;98855.41;4837110;29;20160;-70
2022/01/05 02:03:37;;;;;;;61.15;36.83;;;;;;;13.49;100.00;98853.19;4837900;29;20145;-70
2022/01/05 02:06:26;;;;;;;61.88;33.53;;;;;;;13.45;100.00;98862.00;4823270;29;20068;-70
2022/01/05 02:09:08;;;;;;;61.08;35.42;;;;;;;13.29;100.00;98869.50;4842286;29;20091;-69
2022/01/05 02:11:57;;;;;;;58.33;34.40;;;;;;;13.24;100.00;98868.00;4830203;29;20085;-69
2022/01/05 02:14:45;;;;;;;61.20;34.35;;;;;;;13.44;100.00;98887.91;4837969;29;20046;-69
2022/01/05 02:17:48;;;;;;;58.63;34.10;;;;;;;13.51;100.00;98889.38;4836861;29;20606;-69
2022/01/05 02:20:37;;;;;;;54.70;35.05;;;;;;;13.57;100.00;98905.50;4833587;29;20069;-69
2022/01/05 02:23:19;;;;;;;61.55;36.60;;;;;;;13.57;100.00;98915.03;4838312;29;20049;-70
2022/01/05 02:26:15;;;;;;;56.42;35.20;;;;;;;13.84;100.00;98908.78;4837784;29;20568;-70
2022/01/05 02:28:51;;;;;;;53.63;35.15;;;;;;;13.67;100.00;98909.44;4841770;29;20072;-70
2022/01/05 02:31:46;;;;;;;62.63;37.05;;;;;;;13.65;100.00;98897.44;4845191;29;20469;-70
2022/01/05 02:34:21;;;;;;;58.45;35.45;;;;;;;13.84;100.00;98913.94;4846689;29;20054;-70
2022/01/05 02:37:08;;;;;;;55.58;35.13;;;;;;;13.81;100.00;98902.88;4834957;29;20046;-69
2022/01/05 02:39:50;;;;;;;53.50;35.75;;;;;;;13.59;100.00;98905.44;4826989;29;20057;-70
2022/01/05 02:42:39;;;;;;;58.58;37.20;;;;;;;13.54;100.00;98907.38;4844812;29;20049;-70
2022/01/05 02:45:22;;;;;;;62.42;37.25;;;;;;;13.49;100.00;98912.72;4843672;29;20053;-70
2022/01/05 02:48:11;;;;;;;62.55;37.08;;;;;;;13.72;100.00;98917.03;4846236;29;20129;-69
2022/01/05 02:50:53;;;;;;;59.53;37.75;;;;;;;13.80;100.00;98909.81;4825820;29;20546;-71
2022/01/05 02:53:50;;;;;;;61.95;38.92;;;;;;;13.70;100.00;98921.41;4846356;29;20049;-70
2022/01/05 02:56:25;;;;;;;63.55;37.40;;;;;;;13.62;100.00;98928.63;4844941;29;20064;-70
2022/01/05 02:59:14;;;;;;;58.90;37.03;;;;;;;13.70;100.00;98931.78;4844426;29;20137;-69
2022/01/05 03:01:57;;;;;;;59.58;37.45;;;;;;;13.59;100.00;98939.94;4842235;29;20124;-72
2022/01/05 03:04:52;;;;;;;61.50;37.08;;;;;;;13.71;100.00;98943.81;4842282;29;20050;-69
2022/01/05 03:07:27;;;;;;;57.40;37.13;;;;;;;13.67;100.00;98942.25;4845650;29;20050;-70
2022/01/05 03:10:15;;;;;;;66.90;38.83;;;;;;;13.55;100.00;98945.31;4844535;29;20051;-69
2022/01/05 03:13:04;;;;;;;61.28;38.30;;;;;;;13.75;100.00;98955.72;4851905;29;20538;-70
2022/01/05 03:15:46;;;;;;;63.13;39.85;;;;;;;13.54;100.00;98956.56;4855834;29;20064;-69
2022/01/05 03:18:35;;;;;;;70.65;40.45;;;;;;;13.65;100.00;98952.66;4837723;29;20054;-69
2022/01/05 03:21:30;;;;;;;63.75;39.63;;;;;;;13.66;100.00;98951.75;4841076;29;20117;-69
2022/01/05 03:24:17;;;;;;;;;;;;;;;13.72;100.00;98955.88;4843327;29;20049;-69
2022/01/05 03:27:05;;;;;;;70.53;40.38;;;;;;;13.70;100.00;98966.28;4844412;29;19924;-69
2022/01/05 03:29:46;;;;;;;69.75;42.15;;;;;;;13.54;100.00;98985.03;4835287;29;20665;-69
2022/01/05 03:32:57;;;;;;;71.68;41.17;;;;;;;13.47;100.00;98975.81;4835964;29;20054;-70
2022/01/05 03:35:45;;;;;;;69.13;41.97;;;;;;;13.48;100.00;98978.34;4820547;29;20078;-70
2022/01/05 03:38:33;;;;;;;72.95;42.08;;;;;;;13.45;100.00;98972.44;4843089;29;20069;-69
2022/01/05 03:41:20;;;;;;;74.10;43.42;;;;;;;13.49;100.00;98968.84;4836429;29;20053;-70
2022/01/05 03:44:03;;;;;;;74.50;43.83;;;;;;;13.47;100.00;98999.09;4833513;29;20065;-70
2022/01/05 03:46:53;;;;;;;80.38;44.72;;;;;;;13.67;100.00;99027.69;4835608;29;20418;-71
2022/01/05 03:49:35;;;;;;;81.55;46.97;;;;;;;13.52;100.00;99010.13;4834578;29;20068;-70
2022/01/05 03:52:22;;;;;;;84.35;46.97;;;;;;;13.63;100.00;99002.81;4846204;29;20065;-70
2022/01/05 03:55:05;;;;;;;80.15;47.20;;;;;;;13.46;100.00;99013.78;4836843;29;20066;-70
2022/01/05 03:57:53;;;;;;;76.65;46.65;;;;;;;13.51;100.00;99023.97;4845247;29;20065;-70
2022/01/05 04:00:36;;;;;;;80.15;46.13;;;;;;;13.53;100.00;99023.00;4847436;29;20106;-70
2022/01/05 04:03:26;;;;;;;80.13;46.80;;;;;;;13.55;100.00;99038.50;4842841;29;20046;-70
2022/01/05 04:06:14;;;;;;;84.53;47.28;;;;;;;13.70;100.00;99051.72;4829715;29;20613;-70
2022/01/05 04:08:55;;;;;;;79.70;48.45;;;;;;;13.60;100.00;99044.34;4823187;29;20157;-71
2022/01/05 04:11:45;;;;;;;95.43;51.50;;;;;;;13.65;100.00;99042.41;4817374;29;20058;-71
2022/01/05 04:14:26;;;;;;;87.38;50.15;;;;;;;13.59;100.00;99034.88;4839079;29;20061;-71
2022/01/05 04:17:17;;;;;;;99.15;56.28;;;;;;;13.50;100.00;99027.44;4842868;29;20156;-70
2022/01/05 04:19:58;;;;;;;100.75;57.30;;;;;;;13.47;100.00;99017.22;4837603;29;20054;-70
2022/01/05 04:22:48;;;;;;;109.28;61.08;;;;;;;13.49;100.00;99013.66;4837937;29;20118;-71
2022/01/05 04:25:32;;;;;;;107.78;62.28;;;;;;;13.46;100.00;99025.88;4834853;29;20075;-71
2022/01/05 04:28:22;;;;;;;108.68;60.72;;;;;;;13.51;100.00;99035.16;4843972;29;20687;-71
2022/01/05 04:31:04;;;;;;;104.90;59.60;;;;;;;13.55;100.00;99030.72;4841007;29;20046;-71
2022/01/05 04:33:53;;;;;;;103.82;59.47;;;;;;;13.61;100.00;99026.16;4839804;29;20060;-71
2022/01/05 04:36:56;;;;;;;105.05;60.47;;;;;;;13.62;100.00;99030.44;4833724;29;20129;-71
2022/01/05 04:39:45;;;;;;;106.45;59.45;;;;;;;13.73;100.00;99024.84;4843445;29;20527;-71
2022/01/05 04:42:32;;;;;;;102.28;57.50;;;;;;;13.58;100.00;99026.25;4824582;29;20135;-71
2022/01/05 04:45:22;;;;;;;111.95;61.38;;;;;;;13.87;100.00;99017.44;4836059;29;20057;-71
2022/01/05 04:48:11;;;;;;;102.57;59.90;;;;;;;13.63;100.00;98995.06;4840544;29;20363;-71
2022/01/05 04:51:00;;;;;;;114.97;61.33;;;;;;;13.69;100.00;98984.47;4842951;29;20556;-70
2022/01/05 04:53:41;;;;;;;103.68;60.50;;;;;;;13.56;100.00;98996.19;4840478;29;20057;-70
2022/01/05 04:56:31;;;;;;;107.28;59.40;;;;;;;13.83;100.00;99007.22;4823221;29;20062;-70
2022/01/05 04:59:13;;;;;;;113.88;61.17;;;;;;;13.95;100.00;99020.56;4837242;29;20802;-70
2022/01/05 05:02:02;;;;;;;106.40;59.20;;;;;;;14.12;100.00;99013.00;4826814;29;20522;-70
2022/01/05 05:04:52;;;;;;;111.97;60.40;;;;;;;14.08;100.00;99003.66;4830455;29;20132;-70
2022/01/05 05:07:41;;;;;;;110.07;61.92;;;;;;;13.87;100.00;98999.31;4841225;29;20470;-63
2022/01/05 05:10:22;;;;;;;107.68;60.42;;;;;;;13.88;100.00;98993.22;4837911;29;20054;-63
2022/01/05 05:13:19;;;;;;;102.63;58.65;;;;;;;14.04;100.00;98999.50;4839164;29;20065;-63
2022/01/05 05:16:02;;;;;;;107.53;59.55;;;;;;;14.02;100.00;98995.28;4838885;29;20151;-63
2022/01/05 05:18:51;;;;;;;116.57;64.28;;;;;;;14.05;100.00;98989.94;4839113;29;20608;-63
2022/01/05 05:21:33;;;;;;;113.13;63.90;;;;;;;14.07;100.00;98985.56;4841017;29;20049;-63
2022/01/05 05:24:22;;;;;;;110.65;63.00;;;;;;;14.34;100.00;98981.88;4837332;29;20057;-63
2022/01/05 05:27:04;;;;;;;121.72;64.07;;;;;;;14.13;100.00;98967.19;4833090;29;20057;-63
2022/01/05 05:29:53;;;;;;;113.50;63.42;;;;;;;14.13;100.00;98968.03;4835780;29;20141;-63
2022/01/05 05:32:35;;;;;;;110.72;62.22;;;;;;;14.33;100.00;98964.66;4845090;29;20441;-63
2022/01/05 05:35:29;;;;;;;104.90;62.08;;;;;;;14.05;100.00;98957.13;4840300;29;20054;-63
2022/01/05 05:38:12;;;;;;;103.55;59.55;;;;;;;14.29;100.00;98952.72;4840104;29;20431;-64
2022/01/05 05:41:01;;;;;;;102.00;58.45;;;;;;;14.17;100.00;98959.25;4840222;29;20046;-64
2022/01/05 05:43:44;;;;;;;100.40;58.77;;;;;;;14.21;100.00;98959.94;4833940;29;20064;-63
2022/01/05 05:46:34;;;;;;;108.15;56.75;;;;;;;14.18;100.00;98968.72;4835965;29;20319;-63
2022/01/05 05:49:23;;;;;;;99.15;55.92;;;;;;;13.95;100.00;98971.38;4817029;29;20064;-63
2022/01/05 05:52:06;;;;;;;98.88;52.17;;;;;;;14.20;100.00;98967.81;4842714;29;20064;-63
2022/01/05 05:54:58;;;;;;;103.28;55.28;;;;;;;13.95;100.00;98960.16;4827083;29;20050;-63
2022/01/05 05:57:55;;;;;;;97.65;53.40;;;;;;;13.97;100.00;98956.59;4819089;29;20058;-63
2022/01/05 06:00:44;;;;;;;97.38;55.38;;;;;;;14.06;100.00;98948.44;4827174;29;20058;-63
2022/01/05 06:03:33;;;;;;;97.32;54.15;;;;;;;13.91;100.00;98936.09;4844959;29;20057;-65
2022/01/05 06:06:14;;;;;;;100.78;54.58;;;;;;;13.96;100.00;98943.72;4845160;29;20064;-64
2022/01/05 06:09:04;;;;;;;96.93;55.00;;;;;;;14.09;100.00;98934.53;4847893;29;20060;-62
2022/01/05 06:11:52;;;;;;;97.93;55.92;;;;;;;14.01;100.00;98936.59;4846630;29;20050;-63
2022/01/05 06:14:34;;;;;;;107.22;58.10;;;;;;;14.01;100.00;98936.59;4847026;29;20402;-63
2022/01/05 06:17:29;;;;;;;107.05;57.80;;;;;;;13.96;100.00;98929.03;4847336;29;20050;-63
2022/01/05 06:20:19;;;;;;;102.00;56.08;;;;;;;14.01;100.00;98913.28;4838292;29;20094;-63
2022/01/05 06:23:14;;;;;;;109.93;59.05;;;;;;;13.85;100.00;98896.66;4842883;29;20045;-63
2022/01/05 06:26:01;;;;;;;105.28;57.10;;;;;;;13.69;100.00;98889.50;4841324;29;20479;-64
2022/01/05 06:28:51;;;;;;;101.63;56.38;;;;;;;13.55;100.00;98885.78;4841637;29;20573;-63
2022/01/05 06:31:32;;;;;;;102.95;56.15;;;;;;;13.64;100.00;98877.66;4826332;29;20081;-63
2022/01/05 06:34:22;;;;;;;98.50;57.25;;;;;;;13.65;100.00;98872.41;4833891;29;20061;-63
2022/01/05 06:37:15;;;;;;;104.22;54.80;;;;;;;13.39;100.00;98870.00;4815166;29;20056;-63
2022/01/05 06:40:05;;;;;;;102.82;54.55;;;;;;;13.47;100.00;98867.13;4835475;29;20046;-64
2022/01/05 06:42:54;;;;;;;100.97;54.92;;;;;;;13.65;100.00;98867.22;4836944;29;20386;-63
2022/01/05 06:45:36;;;;;;;111.80;59.13;;;;;;;13.71;100.00;98858.38;4826647;29;20057;-64
2022/01/05 06:48:25;;;;;;;106.65;58.40;;;;;;;13.59;100.00;98853.69;4840739;29;20860;-62
2022/01/05 06:51:14;;;;;;;109.07;57.28;;;;;;;13.57;100.00;98848.56;4825225;29;20050;-64
2022/01/05 06:53:56;;;;;;;117.20;59.88;;;;;;;13.50;100.00;98835.91;4843633;29;20080;-64
2022/01/05 06:56:46;;;;;;;104.85;57.50;;;;;;;13.65;100.00;98827.53;4836941;29;20057;-63
2022/01/05 06:59:27;;;;;;;107.68;58.00;;;;;;;13.94;100.00;98816.88;4825706;29;21541;-65
2022/01/05 07:02:17;;;;;;;102.28;54.95;;;;;;;13.70;100.00;98821.28;4820744;29;20391;-66
2022/01/05 07:04:59;;;;;;;102.38;56.58;;;;;;;13.77;100.00;98819.28;4842840;29;20046;-65
2022/01/05 07:07:48;;;;;;;105.63;56.22;;;;;;;13.86;100.00;98815.50;4842212;29;20542;-65
2022/01/05 07:10:29;;;;;;;100.75;55.03;;;;;;;13.61;100.00;98802.69;4827558;29;20069;-65
2022/01/05 07:13:19;;;;;;;105.05;54.67;;;;;;;13.68;100.00;98792.03;4831692;29;20046;-66
2022/01/05 07:16:01;;;;;;;103.03;54.45;;;;;;;13.74;100.00;98793.50;4836761;29;20054;-65
2022/01/05 07:18:50;;;;;;;101.60;54.08;;;;;;;13.73;100.00;98784.06;4833180;29;20068;-63
2022/01/05 07:21:33;;;;;;;103.90;53.03;;;;;;;13.73;100.00;98776.28;4831175;29;20068;-65
2022/01/05 07:24:28;;;;;;;104.68;54.88;;;;;;;13.67;100.00;98779.97;4824538;29;20054;-66
2022/01/05 07:27:03;;;;;;;102.00;54.55;;;;;;;13.60;100.00;98775.13;4809279;29;20480;-66
2022/01/05 07:29:52;;;;;;;105.65;54.67;;;;;;;13.49;100.00;98772.16;4822255;29;20061;-65
2022/01/05 07:32:34;;;;;;;103.68;55.50;;;;;;;13.36;100.00;98771.78;4810901;29;20379;-65
2022/01/05 07:35:24;;;;;;;112.03;56.50;;;;;;;13.24;100.00;98764.50;4807103;29;20077;-65
2022/01/05 07:38:07;;;;;;;106.93;55.67;;;;;;;13.24;100.00;98769.69;4811585;29;20154;-66
2022/01/05 07:40:56;;;;;;;105.68;54.70;;;;;;;13.04;100.00;98770.41;4818432;29;20150;-65
2022/01/05 07:43:38;;;;;;;111.80;53.90;;;;;;;13.11;100.00;98774.44;4822346;29;20074;-64
2022/01/05 07:46:29;;;;;;;102.00;54.80;;;;;;;13.28;100.00;98768.66;4819939;29;20062;-65
2022/01/05 07:49:11;;;;;;;104.65;54.67;;;;;;;13.34;100.00;98789.09;4795922;29;20141;-65
2022/01/05 07:52:11;;;;;;;104.15;54.28;;;;;;;13.44;100.00;98805.97;4807284;29;20218;-65
2022/01/05 07:54:46;;;;;;;107.75;55.40;;;;;;;13.28;100.00;98816.06;4824060;29;20158;-65
2022/01/05 07:57:35;;;;;;;109.60;56.55;;;;;;;13.27;100.00;98813.53;4818915;29;20054;-65
2022/01/05 08:00:18;;;;;;;121.50;60.50;;;;;;;13.17;100.00;98809.63;4814917;29;20042;-65
2022/01/05 08:03:06;;;;;;;118.55;59.70;;;;;;;13.06;100.00;98815.19;4824420;29;20054;-65
2022/01/05 08:05:56;;;;;;;119.38;61.08;;;;;;;13.13;100.00;98808.91;4820862;29;20142;-65
2022/01/05 08:08:45;;;;;;;112.50;60.00;;;;;;;13.20;100.00;98796.56;4820923;29;20058;-67
2022/01/05 08:11:27;;;;;;;107.38;57.72;;;;;;;13.20;100.00;98794.81;4826689;29;20050;-65
2022/01/05 08:14:23;;;;;;;101.82;56.45;;;;;;;13.24;100.00;98788.63;4821743;29;20046;-65
2022/01/05 08:16:58;;;;;;;96.45;53.50;;;;;;;13.23;100.00;98781.78;4821596;29;20417;-67
2022/01/05 08:19:54;;;;;;;100.88;55.40;;;;;;;13.19;100.00;98789.69;4823523;29;20376;-70
2022/01/05 08:22:51;;;;;;;95.57;53.03;;;;;;;13.20;100.00;98787.06;4826891;29;20144;-69
2022/01/05 08:25:39;;;;;;;97.93;56.03;;;;;;;13.17;100.00;98776.81;4833435;29;20118;-69
2022/01/05 08:28:23;;;;;;;96.65;54.83;;;;;;;13.14;100.00;98758.00;4835876;29;20142;-69
2022/01/05 08:31:12;;;;;;;99.40;54.63;;;;;;;13.17;100.00;98758.72;4824427;29;20046;-65
2022/01/05 08:33:57;;;;;;;108.38;56.08;;;;;;;13.12;100.00;98759.78;4833240;29;20046;-69
2022/01/05 08:36:46;;;;;;;104.57;57.10;;;;;;;13.17;100.00;98779.41;4834335;29;20490;-68
2022/01/05 08:39:37;;;;;;;105.60;57.42;;;;;;;13.26;100.00;98781.63;4823451;29;20119;-68
2022/01/05 08:42:18;;;;;;;117.93;62.83;;;;;;;13.30;100.00;98778.03;4823275;29;20058;-68
2022/01/05 08:45:09;;;;;;;122.00;65.47;;;;;;;13.21;100.00;98769.78;4821679;29;20525;-69
2022/01/05 08:47:53;;;;;;;128.38;68.78;;;;;;;13.19;100.00;98754.34;4844591;29;20142;-68
2022/01/05 08:50:43;;;;;;;132.52;68.85;;;;;;;13.00;100.00;98749.03;4838720;29;20065;-67
2022/01/05 08:53:24;;;;;;;131.40;69.22;;;;;;;13.10;100.00;98758.97;4834437;29;20053;-66
2022/01/05 08:56:15;;;;;;;126.28;68.20;;;;;;;13.08;100.00;98761.66;4840207;29;20054;-67
2022/01/05 08:58:56;;;;;;;136.18;73.03;;;;;;;13.05;100.00;98751.41;4842754;29;20049;-66
2022/01/05 09:01:47;;;;;;;139.63;71.80;;;;;;;13.05;100.00;98769.53;4839698;29;20056;-65
2022/01/05 09:04:29;;;;;;;133.60;73.20;;;;;;;13.13;100.00;98780.44;4846263;29;20838;-67
2022/01/05 09:07:18;;;;;;;131.00;73.78;;;;;;;13.20;100.00;98768.94;4843869;29;20053;-67
2022/01/05 09:10:03;;;;;;;144.43;77.03;;;;;;;13.19;100.00;98763.84;4845037;29;20046;-65
2022/01/05 09:12:56;;;;;;;142.73;77.57;;;;;;;13.20;100.00;98757.75;4848112;29;20482;-65
2022/01/05 09:15:38;;;;;;;137.43;78.30;;;;;;;13.20;100.00;98750.84;4833352;29;20053;-66
2022/01/05 09:18:28;;;;;;;138.57;80.28;;;;;;;13.19;100.00;98759.50;4835348;29;20038;-66
2022/01/05 09:21:11;;;;;;;138.70;77.75;;;;;;;13.32;100.00;98750.38;4847931;29;20077;-67
2022/01/05 09:24:07;;;;;;;135.05;76.55;;;;;;;13.15;100.00;98745.03;4840813;29;20045;-67
2022/01/05 09:26:42;;;;;;;128.68;75.07;;;;;;;13.19;100.00;98732.78;4845206;29;20145;-64
2022/01/05 09:29:41;;;;;;;131.43;74.25;;;;;;;13.08;100.00;98728.03;4843681;29;20050;-65
2022/01/05 09:32:17;;;;;;;113.18;67.55;;;;;;;13.09;100.00;98734.84;4838659;29;20501;-64
2022/01/05 09:35:08;;;;;;;100.93;58.92;;;;;;;12.99;100.00;98730.97;4839629;29;20049;-64
2022/01/05 09:37:54;;;;;;;93.97;50.03;;;;;;;13.02;100.00;98723.06;4832442;29;20046;-65
2022/01/05 09:43:54;;;;;;;75.80;44.78;;;;;;;12.91;100.00;98687.31;4839982;29;20053;-64
2022/01/05 09:47:04;;;;;;;80.80;48.50;;;;;;;12.84;100.00;98692.78;4822895;29;20121;-64
2022/01/05 09:50:05;;;;;;;91.57;52.45;;;;;;;12.83;100.00;98688.50;4827316;29;20050;-64
2022/01/05 09:52:44;;;;;;;104.10;58.33;;;;;;;12.89;100.00;98683.94;4846493;29;20061;-64
2022/01/05 09:55:33;;;;;;;107.18;62.67;;;;;;;12.91;100.00;98686.47;4846838;29;20054;-65
2022/01/05 09:58:15;;;;;;;120.55;69.35;;;;;;;12.83;100.00;98683.34;4839254;29;20046;-64
2022/01/05 10:01:05;;;;;;;113.90;62.58;;;;;;;12.78;100.00;98669.75;4844967;29;20049;-66
2022/01/05 10:03:54;;;;;;;96.90;57.95;;;;;;;12.90;100.00;98671.84;4845260;29;20063;-66
2022/01/05 10:06:37;;;;;;;87.43;51.50;;;;;;;12.79;100.00;98676.59;4845507;29;20065;-63
2022/01/05 10:09:26;;;;;;;81.35;47.50;;;;;;;12.80;100.00;98673.97;4841700;29;20049;-64
2022/01/05 10:12:15;;;;;;;78.22;44.42;;;;;;;12.79;100.00;98682.59;4837993;29;20061;-65
2022/01/05 10:15:04;;;;;;;77.57;45.03;;;;;;;12.70;100.00;98692.47;4846469;29;20050;-65
2022/01/05 10:17:45;;;;;;;71.65;42.33;;;;;;;12.85;100.00;98692.69;4837797;29;20060;-65
2022/01/05 10:20:35;;;;;;;72.28;43.45;;;;;;;12.87;100.00;98695.22;4822660;29;20054;-67
2022/01/05 10:23:51;;;;;;;72.47;42.80;;;;;;;12.93;100.00;98692.44;4829750;29;20128;-65
2022/01/05 10:26:42;;;;;;;67.32;41.53;;;;;;;12.94;100.00;98688.91;4841725;29;20046;-64
2022/01/05 10:29:38;;;;;;;68.88;42.08;;;;;;;12.88;100.00;98696.91;4825112;29;20053;-66
2022/01/05 10:32:13;;;;;;;68.20;40.53;;;;;;;12.91;100.00;98701.97;4844475;29;20053;-66
2022/01/05 10:35:26;;;;;;;66.93;39.78;;;;;;;12.86;100.00;98702.16;4842338;29;20054;-68
2022/01/05 10:38:16;;;;;;;65.63;40.00;;;;;;;12.78;100.00;98700.75;4843835;29;20056;-68
2022/01/05 10:41:16;;;;;;;64.30;39.40;;;;;;;12.79;100.00;98707.63;4838729;29;20049;-64
2022/01/05 10:44:33;;;;;;;61.40;38.53;;;;;;;12.90;100.00;98701.16;4826582;29;20049;-66
2022/01/05 10:47:29;;;;;;;68.05;37.42;;;;;;;12.87;100.00;98697.81;4768754;30;20649;-66
2022/01/05 10:50:06;;;;;;;65.57;38.85;;;;;;;12.90;100.00;98695.13;4842477;29;20054;-69
2022/01/05 10:53:03;;;;;;;68.18;38.95;;;;;;;12.91;100.00;98689.06;4846953;29;20065;-64
2022/01/05 10:55:42;;;;;;;65.40;37.78;;;;;;;12.80;100.00;98688.63;4837775;29;20054;-64
2022/01/05 10:58:45;;;;;;;69.43;38.90;;;;;;;12.92;100.00;98688.16;4835984;29;20054;-67
2022/01/05 11:01:41;;;;;;;64.00;39.13;;;;;;;12.96;100.00;98700.06;4839838;29;20053;-68
2022/01/05 11:04:29;;;;;;;65.15;38.85;;;;;;;12.92;100.00;98703.69;4835881;29;20050;-66
2022/01/05 11:07:29;;;;;;;64.53;39.47;;;;;;;12.87;100.00;98703.00;4841573;29;20049;-67
2022/01/05 11:10:16;;;;;;;73.15;39.90;;;;;;;12.95;100.00;98688.88;4843308;29;20057;-66
2022/01/05 11:13:04;;;;;;;;;;;;;;;13.06;100.00;98693.63;4851422;29;20054;-67
2022/01/05 11:15:46;;;;;;;69.50;39.33;;;;;;;13.01;100.00;98691.19;4846595;29;19928;-68
2022/01/05 11:18:36;;;;;;;75.57;41.88;;;;;;;12.92;100.00;98693.34;4846865;29;20057;-69
2022/01/05 11:21:19;;;;;;;73.82;41.67;;;;;;;12.97;100.00;98702.59;4829389;29;20523;-66
2022/01/05 11:24:08;;;;;;;65.22;39.10;;;;;;;12.98;100.00;98713.78;4824657;29;20054;-65
2022/01/05 11:27:05;;;;;;;65.65;39.90;;;;;;;13.04;100.00;98723.88;4823684;29;20058;-67
2022/01/05 11:29:40;;;;;;;67.68;37.85;;;;;;;13.16;100.00;98733.78;4829720;29;20053;-65
2022/01/05 11:32:31;;;;;;;65.18;38.92;;;;;;;13.24;100.00;98729.16;4821031;29;20065;-65
2022/01/05 11:35:20;;;;;;;66.05;39.97;;;;;;;13.15;100.00;98726.06;4829029;29;20062;-62
2022/01/05 11:38:04;;;;;;;71.95;41.58;;;;;;;13.22;100.00;98717.16;4844243;29;20057;-64
2022/01/05 11:40:56;;;;;;;70.95;42.78;;;;;;;13.28;100.00;98707.41;4844040;29;20050;-63
2022/01/05 11:43:40;;;;;;;71.00;42.42;;;;;;;13.27;100.00;98705.72;4825135;29;20105;-65
2022/01/05 11:46:35;;;;;;;72.78;43.38;;;;;;;13.21;100.00;98718.91;4827591;29;20408;-69
2022/01/05 11:49:25;;;;;;;74.15;45.10;;;;;;;13.27;100.00;98720.41;4842186;29;20050;-66
2022/01/05 11:52:15;;;;;;;76.07;42.88;;;;;;;13.33;100.00;98720.97;4845016;29;20069;-67
2022/01/05 11:55:05;;;;;;;73.85;43.50;;;;;;;13.31;100.00;98727.16;4843996;29;20053;-69
2022/01/05 11:58:26;;;;;;;76.07;42.65;;;;;;;13.24;100.00;98733.47;4836456;29;20061;-68
2022/01/05 12:01:13;;;;;;;73.60;42.97;;;;;;;13.00;100.00;98724.91;4834468;29;20045;-67
2022/01/05 12:04:03;;;;;;;72.97;42.40;;;;;;;13.09;100.00;98732.28;4827786;29;20058;-71
2022/01/05 12:07:02;;;;;;;66.57;40.58;;;;;;;13.10;100.00;98731.38;4827708;29;20153;-67
2022/01/05 12:09:38;;;;;;;69.53;40.33;;;;;;;13.10;100.00;98726.19;4821387;29;20050;-70
2022/01/05 12:12:30;;;;;;;66.07;39.85;;;;;;;12.91;100.00;98733.84;4812429;29;20344;-67
2022/01/05 12:15:12;;;;;;;66.40;39.80;;;;;;;12.99;100.00;98736.16;4822554;29;20131;-67
2022/01/05 12:18:09;;;;;;;66.13;39.88;;;;;;;13.00;100.00;98749.03;4827552;29;20045;-70
2022/01/05 12:20:44;;;;;;;65.82;38.45;;;;;;;13.09;100.00;98745.19;4829769;29;20073;-67
2022/01/05 12:23:39;;;;;;;64.93;37.92;;;;;;;13.25;100.00;98733.38;4840035;29;20064;-67
2022/01/05 12:26:27;;;;;;;66.50;40.10;;;;;;;13.35;100.00;98729.53;4842283;29;20679;-72
2022/01/05 12:29:18;;;;;;;64.97;38.50;;;;;;;13.12;100.00;98732.16;4826919;29;20061;-69
2022/01/05 12:32:06;;;;;;;60.45;36.85;;;;;;;13.08;100.00;98727.19;4836948;29;20034;-72
2022/01/05 12:35:00;;;;;;;69.57;38.33;;;;;;;13.13;100.00;98707.16;4829519;29;20049;-68
2022/01/05 12:38:06;;;;;;;74.43;43.42;;;;;;;13.04;100.00;98665.22;4839169;29;20487;-68
2022/01/05 12:40:55;;;;;;;69.80;41.30;;;;;;;12.91;100.00;98645.94;4840709;29;20125;-68
2022/01/05 12:43:45;;;;;;;66.65;39.67;;;;;;;13.01;100.00;98646.41;4836011;29;20073;-66